sensor_id;sensor_type;location;lat;lon;timestamp;temperature;humidity
44190;DHT22;29856;52.144;5.430;2023-08-07T00:01:51;13.80;99.90
44190;DHT22;29856;52.144;5.430;2023-08-07T00:04:16;13.80;99.90
44190;DHT22;29856;52.144;5.430;2023-08-07T00:06:42;13.80;99.90
44190;DHT22;29856;52.144;5.430;2023-08-07T00:09:07;13.90;99.90
44190;DHT22;29856;52.144;5.430;2023-08-07T00:11:33;13.80;99.90
44190;DHT22;29856;52.144;5.430;2023-08-07T00:13:58;13.80;99.90
44190;DHT22;29856;52.144;5.430;2023-08-07T00:16:24;13.80;99.90
44190;DHT22;29856;52.144;5.430;2023-08-07T00:18:49;13.80;99.90
44190;DHT22;29856;52.144;5.430;2023-08-07T00:21:15;13.70;99.90
44190;DHT22;29856;52.144;5.430;2023-08-07T00:23:40;13.80;99.90
44190;DHT22;29856;52.144;5.430;2023-08-07T00:26:06;13.80;99.90
44190;DHT22;29856;52.144;5.430;2023-08-07T00:28:31;13.90;99.90
44190;DHT22;29856;52.144;5.430;2023-08-07T00:30:56;13.80;99.90
44190;DHT22;29856;52.144;5.430;2023-08-07T00:33:22;13.80;99.90
44190;DHT22;29856;52.144;5.430;2023-08-07T00:35:47;13.80;99.90
44190;DHT22;29856;52.144;5.430;2023-08-07T00:38:13;13.80;99.90
44190;DHT22;29856;52.144;5.430;2023-08-07T00:40:39;13.80;99.90
44190;DHT22;29856;52.144;5.430;2023-08-07T00:43:05;13.90;99.90
44190;DHT22;29856;52.144;5.430;2023-08-07T00:45:38;13.90;99.90
44190;DHT22;29856;52.144;5.430;2023-08-07T00:48:06;13.90;99.90
44190;DHT22;29856;52.144;5.430;2023-08-07T00:50:31;13.90;99.90
44190;DHT22;29856;52.144;5.430;2023-08-07T00:52:57;13.90;99.90
44190;DHT22;29856;52.144;5.430;2023-08-07T00:55:23;13.90;99.90
44190;DHT22;29856;52.144;5.430;2023-08-07T00:57:49;13.90;99.90
44190;DHT22;29856;52.144;5.430;2023-08-07T01:00:15;13.90;99.90
44190;DHT22;29856;52.144;5.430;2023-08-07T01:02:40;13.90;99.90
44190;DHT22;29856;52.144;5.430;2023-08-07T01:05:06;14.00;99.90
44190;DHT22;29856;52.144;5.430;2023-08-07T01:07:32;14.00;99.90
44190;DHT22;29856;52.144;5.430;2023-08-07T01:09:57;14.00;99.90
44190;DHT22;29856;52.144;5.430;2023-08-07T01:12:30;14.00;99.90
44190;DHT22;29856;52.144;5.430;2023-08-07T01:17:32;14.00;99.90
44190;DHT22;29856;52.144;5.430;2023-08-07T01:19:58;14.00;99.90
44190;DHT22;29856;52.144;5.430;2023-08-07T01:22:24;14.10;99.90
44190;DHT22;29856;52.144;5.430;2023-08-07T01:24:50;14.10;99.90
44190;DHT22;29856;52.144;5.430;2023-08-07T01:32:31;14.10;99.90
44190;DHT22;29856;52.144;5.430;2023-08-07T01:35:01;14.10;99.90
44190;DHT22;29856;52.144;5.430;2023-08-07T01:37:33;14.10;99.90
44190;DHT22;29856;52.144;5.430;2023-08-07T01:40:00;14.10;99.90
44190;DHT22;29856;52.144;5.430;2023-08-07T01:42:27;14.10;99.90
44190;DHT22;29856;52.144;5.430;2023-08-07T01:44:53;14.20;99.90
44190;DHT22;29856;52.144;5.430;2023-08-07T01:47:18;14.10;99.90
44190;DHT22;29856;52.144;5.430;2023-08-07T01:49:44;14.20;99.90
44190;DHT22;29856;52.144;5.430;2023-08-07T01:52:09;14.20;99.90
44190;DHT22;29856;52.144;5.430;2023-08-07T01:54:35;14.30;99.90
44190;DHT22;29856;52.144;5.430;2023-08-07T01:57:00;14.20;99.90
44190;DHT22;29856;52.144;5.430;2023-08-07T01:59:26;14.30;99.90
44190;DHT22;29856;52.144;5.430;2023-08-07T02:01:51;14.30;99.90
44190;DHT22;29856;52.144;5.430;2023-08-07T02:04:17;14.20;99.90
44190;DHT22;29856;52.144;5.430;2023-08-07T02:06:42;14.20;99.90
44190;DHT22;29856;52.144;5.430;2023-08-07T02:09:08;14.20;99.90
44190;DHT22;29856;52.144;5.430;2023-08-07T02:11:33;14.30;99.90
44190;DHT22;29856;52.144;5.430;2023-08-07T02:13:59;14.30;99.90
44190;DHT22;29856;52.144;5.430;2023-08-07T02:16:24;14.30;99.90
44190;DHT22;29856;52.144;5.430;2023-08-07T02:18:49;14.30;99.90
44190;DHT22;29856;52.144;5.430;2023-08-07T02:21:15;14.30;99.90
44190;DHT22;29856;52.144;5.430;2023-08-07T02:23:40;14.30;99.90
44190;DHT22;29856;52.144;5.430;2023-08-07T02:26:06;14.20;99.90
44190;DHT22;29856;52.144;5.430;2023-08-07T02:28:31;14.20;99.90
44190;DHT22;29856;52.144;5.430;2023-08-07T02:30:57;14.20;99.90
44190;DHT22;29856;52.144;5.430;2023-08-07T02:33:22;14.10;99.90
44190;DHT22;29856;52.144;5.430;2023-08-07T02:35:48;14.10;99.90
44190;DHT22;29856;52.144;5.430;2023-08-07T02:38:13;14.10;99.90
44190;DHT22;29856;52.144;5.430;2023-08-07T02:40:39;14.10;99.90
44190;DHT22;29856;52.144;5.430;2023-08-07T02:43:04;14.20;99.90
44190;DHT22;29856;52.144;5.430;2023-08-07T02:45:30;14.20;99.90
44190;DHT22;29856;52.144;5.430;2023-08-07T02:47:55;14.20;99.90
44190;DHT22;29856;52.144;5.430;2023-08-07T02:50:20;14.20;99.90
44190;DHT22;29856;52.144;5.430;2023-08-07T02:52:46;14.20;99.90
44190;DHT22;29856;52.144;5.430;2023-08-07T02:55:11;14.10;99.90
44190;DHT22;29856;52.144;5.430;2023-08-07T02:57:37;14.20;99.90
44190;DHT22;29856;52.144;5.430;2023-08-07T03:00:03;14.10;99.90
44190;DHT22;29856;52.144;5.430;2023-08-07T03:02:28;14.20;99.90
44190;DHT22;29856;52.144;5.430;2023-08-07T03:04:54;14.10;99.90
44190;DHT22;29856;52.144;5.430;2023-08-07T03:07:19;14.10;99.90
44190;DHT22;29856;52.144;5.430;2023-08-07T03:09:45;14.10;99.90
44190;DHT22;29856;52.144;5.430;2023-08-07T03:12:11;14.10;99.90
44190;DHT22;29856;52.144;5.430;2023-08-07T03:14:36;14.00;99.90
44190;DHT22;29856;52.144;5.430;2023-08-07T03:17:02;14.10;99.90
44190;DHT22;29856;52.144;5.430;2023-08-07T03:19:27;14.00;99.90
44190;DHT22;29856;52.144;5.430;2023-08-07T03:21:53;14.00;99.90
44190;DHT22;29856;52.144;5.430;2023-08-07T03:24:18;14.10;99.90
44190;DHT22;29856;52.144;5.430;2023-08-07T03:26:44;14.00;99.90
44190;DHT22;29856;52.144;5.430;2023-08-07T03:29:09;14.00;99.90
44190;DHT22;29856;52.144;5.430;2023-08-07T03:31:35;14.00;99.90
44190;DHT22;29856;52.144;5.430;2023-08-07T03:34:00;14.00;99.90
44190;DHT22;29856;52.144;5.430;2023-08-07T03:36:26;13.90;99.90
44190;DHT22;29856;52.144;5.430;2023-08-07T03:38:51;14.00;99.90
44190;DHT22;29856;52.144;5.430;2023-08-07T03:41:16;14.00;99.90
44190;DHT22;29856;52.144;5.430;2023-08-07T03:43:42;14.00;99.90
44190;DHT22;29856;52.144;5.430;2023-08-07T03:46:07;14.00;99.90
44190;DHT22;29856;52.144;5.430;2023-08-07T03:48:33;14.10;99.90
44190;DHT22;29856;52.144;5.430;2023-08-07T03:51:05;14.00;99.90
44190;DHT22;29856;52.144;5.430;2023-08-07T03:53:31;14.00;99.90
44190;DHT22;29856;52.144;5.430;2023-08-07T03:55:56;14.00;99.90
44190;DHT22;29856;52.144;5.430;2023-08-07T03:58:22;14.00;99.90
44190;DHT22;29856;52.144;5.430;2023-08-07T04:00:47;14.10;99.90
44190;DHT22;29856;52.144;5.430;2023-08-07T04:03:13;14.00;99.90
44190;DHT22;29856;52.144;5.430;2023-08-07T04:05:38;14.10;99.90
44190;DHT22;29856;52.144;5.430;2023-08-07T04:08:04;14.00;99.90
44190;DHT22;29856;52.144;5.430;2023-08-07T04:10:29;14.00;99.90
44190;DHT22;29856;52.144;5.430;2023-08-07T04:12:55;14.10;99.90
44190;DHT22;29856;52.144;5.430;2023-08-07T04:15:20;14.10;99.90
44190;DHT22;29856;52.144;5.430;2023-08-07T04:17:46;14.10;99.90
44190;DHT22;29856;52.144;5.430;2023-08-07T04:20:11;14.10;99.90
44190;DHT22;29856;52.144;5.430;2023-08-07T04:22:37;14.10;99.90
44190;DHT22;29856;52.144;5.430;2023-08-07T04:25:02;14.10;99.90
44190;DHT22;29856;52.144;5.430;2023-08-07T04:27:28;14.10;99.90
44190;DHT22;29856;52.144;5.430;2023-08-07T04:29:53;14.10;99.90
44190;DHT22;29856;52.144;5.430;2023-08-07T04:32:19;14.10;99.90
44190;DHT22;29856;52.144;5.430;2023-08-07T04:34:44;14.10;99.90
44190;DHT22;29856;52.144;5.430;2023-08-07T04:37:10;14.10;99.90
44190;DHT22;29856;52.144;5.430;2023-08-07T04:39:35;14.10;99.90
44190;DHT22;29856;52.144;5.430;2023-08-07T04:42:01;14.10;99.90
44190;DHT22;29856;52.144;5.430;2023-08-07T04:44:26;14.10;99.90
44190;DHT22;29856;52.144;5.430;2023-08-07T04:46:52;14.20;99.90
44190;DHT22;29856;52.144;5.430;2023-08-07T04:49:17;14.10;99.90
44190;DHT22;29856;52.144;5.430;2023-08-07T04:51:42;14.10;99.90
44190;DHT22;29856;52.144;5.430;2023-08-07T04:54:08;14.10;99.90
44190;DHT22;29856;52.144;5.430;2023-08-07T04:56:33;14.10;99.90
44190;DHT22;29856;52.144;5.430;2023-08-07T04:58:59;14.10;99.90
44190;DHT22;29856;52.144;5.430;2023-08-07T05:01:24;14.10;99.90
44190;DHT22;29856;52.144;5.430;2023-08-07T05:03:50;14.10;99.90
44190;DHT22;29856;52.144;5.430;2023-08-07T05:06:15;14.10;99.90
44190;DHT22;29856;52.144;5.430;2023-08-07T05:08:41;14.10;99.90
44190;DHT22;29856;52.144;5.430;2023-08-07T05:11:06;14.20;99.90
44190;DHT22;29856;52.144;5.430;2023-08-07T05:13:32;14.20;99.90
44190;DHT22;29856;52.144;5.430;2023-08-07T05:15:57;14.20;99.90
44190;DHT22;29856;52.144;5.430;2023-08-07T05:18:22;14.10;99.90
44190;DHT22;29856;52.144;5.430;2023-08-07T05:20:48;14.10;99.90
44190;DHT22;29856;52.144;5.430;2023-08-07T05:23:13;14.00;99.90
44190;DHT22;29856;52.144;5.430;2023-08-07T05:25:39;14.10;99.90
44190;DHT22;29856;52.144;5.430;2023-08-07T05:28:04;14.00;99.90
44190;DHT22;29856;52.144;5.430;2023-08-07T05:30:30;14.00;99.90
44190;DHT22;29856;52.144;5.430;2023-08-07T05:32:55;14.00;99.90
44190;DHT22;29856;52.144;5.430;2023-08-07T05:35:21;14.00;99.90
44190;DHT22;29856;52.144;5.430;2023-08-07T05:37:46;14.00;99.90
44190;DHT22;29856;52.144;5.430;2023-08-07T05:40:12;14.00;99.90
44190;DHT22;29856;52.144;5.430;2023-08-07T05:42:38;14.00;99.90
44190;DHT22;29856;52.144;5.430;2023-08-07T05:45:04;14.00;99.90
44190;DHT22;29856;52.144;5.430;2023-08-07T05:47:29;14.00;99.90
44190;DHT22;29856;52.144;5.430;2023-08-07T05:49:55;14.10;99.90
44190;DHT22;29856;52.144;5.430;2023-08-07T05:52:20;14.10;99.90
44190;DHT22;29856;52.144;5.430;2023-08-07T05:54:46;14.10;99.90
44190;DHT22;29856;52.144;5.430;2023-08-07T05:57:11;14.20;99.90
44190;DHT22;29856;52.144;5.430;2023-08-07T05:59:37;14.20;99.90
44190;DHT22;29856;52.144;5.430;2023-08-07T06:02:03;14.30;99.90
44190;DHT22;29856;52.144;5.430;2023-08-07T06:04:28;14.30;99.90
44190;DHT22;29856;52.144;5.430;2023-08-07T06:06:54;14.30;99.90
44190;DHT22;29856;52.144;5.430;2023-08-07T06:09:19;14.30;99.90
44190;DHT22;29856;52.144;5.430;2023-08-07T06:11:45;14.30;99.90
44190;DHT22;29856;52.144;5.430;2023-08-07T06:14:10;14.40;99.90
44190;DHT22;29856;52.144;5.430;2023-08-07T06:16:36;14.40;99.90
44190;DHT22;29856;52.144;5.430;2023-08-07T06:19:01;14.40;99.90
44190;DHT22;29856;52.144;5.430;2023-08-07T06:21:27;14.50;99.90
44190;DHT22;29856;52.144;5.430;2023-08-07T06:23:52;14.50;99.90
44190;DHT22;29856;52.144;5.430;2023-08-07T06:26:18;14.60;99.90
44190;DHT22;29856;52.144;5.430;2023-08-07T06:28:43;14.70;99.90
44190;DHT22;29856;52.144;5.430;2023-08-07T06:31:10;14.70;99.90
44190;DHT22;29856;52.144;5.430;2023-08-07T06:33:36;14.80;99.90
44190;DHT22;29856;52.144;5.430;2023-08-07T06:36:03;14.80;99.90
44190;DHT22;29856;52.144;5.430;2023-08-07T06:38:29;15.00;99.90
44190;DHT22;29856;52.144;5.430;2023-08-07T06:40:54;15.00;99.90
44190;DHT22;29856;52.144;5.430;2023-08-07T06:43:20;15.10;99.90
44190;DHT22;29856;52.144;5.430;2023-08-07T06:45:53;15.00;99.90
44190;DHT22;29856;52.144;5.430;2023-08-07T06:48:18;15.00;99.90
44190;DHT22;29856;52.144;5.430;2023-08-07T06:50:46;15.10;99.90
44190;DHT22;29856;52.144;5.430;2023-08-07T06:53:11;15.20;99.90
44190;DHT22;29856;52.144;5.430;2023-08-07T06:55:37;15.30;99.90
44190;DHT22;29856;52.144;5.430;2023-08-07T06:58:02;15.40;99.90
44190;DHT22;29856;52.144;5.430;2023-08-07T07:00:28;15.40;99.90
44190;DHT22;29856;52.144;5.430;2023-08-07T07:02:53;15.50;99.90
44190;DHT22;29856;52.144;5.430;2023-08-07T07:05:19;15.50;99.90
44190;DHT22;29856;52.144;5.430;2023-08-07T07:07:44;15.60;99.90
44190;DHT22;29856;52.144;5.430;2023-08-07T07:10:10;15.60;99.90
44190;DHT22;29856;52.144;5.430;2023-08-07T07:12:36;15.70;99.90
44190;DHT22;29856;52.144;5.430;2023-08-07T07:15:02;15.60;99.90
44190;DHT22;29856;52.144;5.430;2023-08-07T07:17:27;15.40;99.90
44190;DHT22;29856;52.144;5.430;2023-08-07T07:19:53;15.30;99.90
44190;DHT22;29856;52.144;5.430;2023-08-07T07:22:18;15.20;99.90
44190;DHT22;29856;52.144;5.430;2023-08-07T07:24:44;15.20;99.90
44190;DHT22;29856;52.144;5.430;2023-08-07T07:27:09;15.00;99.90
44190;DHT22;29856;52.144;5.430;2023-08-07T07:29:35;15.10;99.90
44190;DHT22;29856;52.144;5.430;2023-08-07T07:32:00;15.20;99.90
44190;DHT22;29856;52.144;5.430;2023-08-07T07:34:26;15.20;99.90
44190;DHT22;29856;52.144;5.430;2023-08-07T07:36:51;15.20;99.90
44190;DHT22;29856;52.144;5.430;2023-08-07T07:39:17;15.30;99.90
44190;DHT22;29856;52.144;5.430;2023-08-07T07:41:42;15.40;99.90
44190;DHT22;29856;52.144;5.430;2023-08-07T07:44:08;15.60;99.90
44190;DHT22;29856;52.144;5.430;2023-08-07T07:46:33;15.60;99.90
44190;DHT22;29856;52.144;5.430;2023-08-07T07:48:59;15.60;99.90
44190;DHT22;29856;52.144;5.430;2023-08-07T07:51:25;15.80;99.90
44190;DHT22;29856;52.144;5.430;2023-08-07T07:53:51;16.10;99.90
44190;DHT22;29856;52.144;5.430;2023-08-07T07:56:16;16.40;99.90
44190;DHT22;29856;52.144;5.430;2023-08-07T07:58:42;16.50;99.90
44190;DHT22;29856;52.144;5.430;2023-08-07T08:01:07;16.50;99.90
44190;DHT22;29856;52.144;5.430;2023-08-07T08:03:33;16.50;99.90
44190;DHT22;29856;52.144;5.430;2023-08-07T08:05:59;16.20;99.90
44190;DHT22;29856;52.144;5.430;2023-08-07T08:08:25;15.80;99.90
44190;DHT22;29856;52.144;5.430;2023-08-07T08:10:51;15.80;99.90
44190;DHT22;29856;52.144;5.430;2023-08-07T08:13:17;15.60;99.90
44190;DHT22;29856;52.144;5.430;2023-08-07T08:15:44;15.40;99.90
44190;DHT22;29856;52.144;5.430;2023-08-07T08:18:10;15.20;99.90
44190;DHT22;29856;52.144;5.430;2023-08-07T08:20:37;15.30;99.90
44190;DHT22;29856;52.144;5.430;2023-08-07T08:23:02;15.30;99.90
44190;DHT22;29856;52.144;5.430;2023-08-07T08:25:28;15.20;99.90
44190;DHT22;29856;52.144;5.430;2023-08-07T08:27:53;15.40;99.90
44190;DHT22;29856;52.144;5.430;2023-08-07T08:30:19;15.50;99.90
44190;DHT22;29856;52.144;5.430;2023-08-07T08:32:45;15.70;99.90
44190;DHT22;29856;52.144;5.430;2023-08-07T08:35:10;15.90;99.90
44190;DHT22;29856;52.144;5.430;2023-08-07T08:37:36;16.00;99.90
44190;DHT22;29856;52.144;5.430;2023-08-07T08:40:01;16.20;99.90
44190;DHT22;29856;52.144;5.430;2023-08-07T08:42:27;16.30;99.90
44190;DHT22;29856;52.144;5.430;2023-08-07T08:44:56;16.60;99.90
44190;DHT22;29856;52.144;5.430;2023-08-07T08:47:23;16.70;99.90
44190;DHT22;29856;52.144;5.430;2023-08-07T08:50:04;16.70;99.90
44190;DHT22;29856;52.144;5.430;2023-08-07T08:52:32;16.50;99.90
44190;DHT22;29856;52.144;5.430;2023-08-07T08:54:57;16.50;99.90
44190;DHT22;29856;52.144;5.430;2023-08-07T08:57:25;16.50;99.90
44190;DHT22;29856;52.144;5.430;2023-08-07T08:59:51;16.20;99.90
44190;DHT22;29856;52.144;5.430;2023-08-07T09:02:17;16.20;99.90
44190;DHT22;29856;52.144;5.430;2023-08-07T09:04:44;15.90;99.90
44190;DHT22;29856;52.144;5.430;2023-08-07T09:07:11;15.70;99.90
44190;DHT22;29856;52.144;5.430;2023-08-07T09:09:39;15.90;99.90
44190;DHT22;29856;52.144;5.430;2023-08-07T09:12:05;16.10;99.90
44190;DHT22;29856;52.144;5.430;2023-08-07T09:14:33;16.20;99.90
44190;DHT22;29856;52.144;5.430;2023-08-07T09:17:01;16.20;99.90
44190;DHT22;29856;52.144;5.430;2023-08-07T09:19:27;16.30;99.90
44190;DHT22;29856;52.144;5.430;2023-08-07T09:21:53;16.50;99.90
44190;DHT22;29856;52.144;5.430;2023-08-07T09:24:18;16.60;99.90
44190;DHT22;29856;52.144;5.430;2023-08-07T09:26:44;17.00;99.90
44190;DHT22;29856;52.144;5.430;2023-08-07T09:29:10;17.20;99.90
44190;DHT22;29856;52.144;5.430;2023-08-07T09:31:36;17.40;99.90
44190;DHT22;29856;52.144;5.430;2023-08-07T09:34:03;17.50;99.90
44190;DHT22;29856;52.144;5.430;2023-08-07T09:36:32;17.50;99.90
44190;DHT22;29856;52.144;5.430;2023-08-07T09:39:01;17.60;99.90
44190;DHT22;29856;52.144;5.430;2023-08-07T09:41:27;17.70;99.90
44190;DHT22;29856;52.144;5.430;2023-08-07T09:43:54;17.70;99.90
44190;DHT22;29856;52.144;5.430;2023-08-07T09:46:19;17.30;99.90
44190;DHT22;29856;52.144;5.430;2023-08-07T09:48:44;17.00;99.90
44190;DHT22;29856;52.144;5.430;2023-08-07T09:51:10;16.80;99.90
44190;DHT22;29856;52.144;5.430;2023-08-07T09:53:36;16.60;99.90
44190;DHT22;29856;52.144;5.430;2023-08-07T09:56:02;16.90;99.90
44190;DHT22;29856;52.144;5.430;2023-08-07T09:58:28;17.00;99.90
44190;DHT22;29856;52.144;5.430;2023-08-07T10:00:54;16.80;99.90
44190;DHT22;29856;52.144;5.430;2023-08-07T10:03:21;16.80;99.90
44190;DHT22;29856;52.144;5.430;2023-08-07T10:05:47;16.90;99.90
44190;DHT22;29856;52.144;5.430;2023-08-07T10:08:12;16.90;99.90
44190;DHT22;29856;52.144;5.430;2023-08-07T10:10:38;16.90;99.90
44190;DHT22;29856;52.144;5.430;2023-08-07T10:13:05;17.10;99.90
44190;DHT22;29856;52.144;5.430;2023-08-07T10:15:32;17.00;99.90
44190;DHT22;29856;52.144;5.430;2023-08-07T10:17:58;17.00;99.90
44190;DHT22;29856;52.144;5.430;2023-08-07T10:20:26;17.00;99.90
44190;DHT22;29856;52.144;5.430;2023-08-07T10:22:52;17.20;99.90
44190;DHT22;29856;52.144;5.430;2023-08-07T10:25:20;17.50;99.90
44190;DHT22;29856;52.144;5.430;2023-08-07T10:27:48;17.10;99.90
44190;DHT22;29856;52.144;5.430;2023-08-07T10:30:15;17.60;99.90
44190;DHT22;29856;52.144;5.430;2023-08-07T10:32:42;17.70;99.90
44190;DHT22;29856;52.144;5.430;2023-08-07T10:35:09;18.00;99.90
44190;DHT22;29856;52.144;5.430;2023-08-07T10:37:45;18.20;99.90
44190;DHT22;29856;52.144;5.430;2023-08-07T10:40:13;18.30;99.90
44190;DHT22;29856;52.144;5.430;2023-08-07T10:45:20;18.20;99.90
44190;DHT22;29856;52.144;5.430;2023-08-07T10:48:03;18.10;99.90
44190;DHT22;29856;52.144;5.430;2023-08-07T10:50:35;18.00;99.90
44190;DHT22;29856;52.144;5.430;2023-08-07T10:53:04;17.80;99.90
44190;DHT22;29856;52.144;5.430;2023-08-07T10:55:46;17.90;99.90
44190;DHT22;29856;52.144;5.430;2023-08-07T10:58:22;17.90;99.90
44190;DHT22;29856;52.144;5.430;2023-08-07T11:00:48;18.10;99.90
44190;DHT22;29856;52.144;5.430;2023-08-07T11:03:25;17.70;99.90
44190;DHT22;29856;52.144;5.430;2023-08-07T11:05:51;18.00;99.90
44190;DHT22;29856;52.144;5.430;2023-08-07T11:08:22;17.80;99.90
44190;DHT22;29856;52.144;5.430;2023-08-07T11:10:47;18.10;99.90
44190;DHT22;29856;52.144;5.430;2023-08-07T11:13:12;17.90;99.90
44190;DHT22;29856;52.144;5.430;2023-08-07T11:15:38;17.80;99.90
44190;DHT22;29856;52.144;5.430;2023-08-07T11:18:04;17.70;99.90
44190;DHT22;29856;52.144;5.430;2023-08-07T11:20:29;17.80;99.90
44190;DHT22;29856;52.144;5.430;2023-08-07T11:22:55;17.70;99.90
44190;DHT22;29856;52.144;5.430;2023-08-07T11:25:20;17.70;99.90
44190;DHT22;29856;52.144;5.430;2023-08-07T11:27:46;17.70;99.90
44190;DHT22;29856;52.144;5.430;2023-08-07T11:30:12;17.90;99.90
44190;DHT22;29856;52.144;5.430;2023-08-07T11:32:37;18.20;99.90
44190;DHT22;29856;52.144;5.430;2023-08-07T11:35:03;18.50;99.90
44190;DHT22;29856;52.144;5.430;2023-08-07T11:37:29;18.40;99.90
44190;DHT22;29856;52.144;5.430;2023-08-07T11:40:00;18.70;99.90
44190;DHT22;29856;52.144;5.430;2023-08-07T11:42:28;18.70;99.90
44190;DHT22;29856;52.144;5.430;2023-08-07T11:44:53;19.00;99.90
44190;DHT22;29856;52.144;5.430;2023-08-07T11:47:19;19.40;99.90
44190;DHT22;29856;52.144;5.430;2023-08-07T11:49:45;19.40;99.90
44190;DHT22;29856;52.144;5.430;2023-08-07T11:52:11;19.50;99.90
44190;DHT22;29856;52.144;5.430;2023-08-07T11:54:37;19.30;99.90
44190;DHT22;29856;52.144;5.430;2023-08-07T11:57:02;19.60;99.90
44190;DHT22;29856;52.144;5.430;2023-08-07T11:59:28;19.70;99.90
44190;DHT22;29856;52.144;5.430;2023-08-07T12:01:53;20.00;99.90
44190;DHT22;29856;52.144;5.430;2023-08-07T12:04:19;20.10;99.90
44190;DHT22;29856;52.144;5.430;2023-08-07T12:06:54;20.20;99.90
44190;DHT22;29856;52.144;5.430;2023-08-07T12:09:20;20.10;99.90
44190;DHT22;29856;52.144;5.430;2023-08-07T12:11:45;20.00;99.90
44190;DHT22;29856;52.144;5.430;2023-08-07T12:14:13;20.30;99.90
44190;DHT22;29856;52.144;5.430;2023-08-07T12:16:39;19.90;99.90
44190;DHT22;29856;52.144;5.430;2023-08-07T12:19:04;19.60;99.90
44190;DHT22;29856;52.144;5.430;2023-08-07T12:21:30;19.50;99.90
44190;DHT22;29856;52.144;5.430;2023-08-07T12:23:56;19.60;99.90
44190;DHT22;29856;52.144;5.430;2023-08-07T12:26:22;19.70;99.90
44190;DHT22;29856;52.144;5.430;2023-08-07T12:28:47;19.00;99.90
44190;DHT22;29856;52.144;5.430;2023-08-07T12:31:13;19.30;99.90
44190;DHT22;29856;52.144;5.430;2023-08-07T12:33:38;19.60;99.90
44190;DHT22;29856;52.144;5.430;2023-08-07T12:36:04;19.90;99.90
44190;DHT22;29856;52.144;5.430;2023-08-07T12:38:29;20.00;99.90
44190;DHT22;29856;52.144;5.430;2023-08-07T12:40:55;19.90;99.90
44190;DHT22;29856;52.144;5.430;2023-08-07T12:43:21;20.10;99.90
44190;DHT22;29856;52.144;5.430;2023-08-07T12:45:47;20.40;99.90
44190;DHT22;29856;52.144;5.430;2023-08-07T12:48:13;20.60;99.90
44190;DHT22;29856;52.144;5.430;2023-08-07T12:50:39;20.40;99.90
44190;DHT22;29856;52.144;5.430;2023-08-07T12:53:05;20.40;99.90
44190;DHT22;29856;52.144;5.430;2023-08-07T12:55:31;20.30;99.90
44190;DHT22;29856;52.144;5.430;2023-08-07T12:57:57;20.00;99.90
44190;DHT22;29856;52.144;5.430;2023-08-07T13:00:23;20.10;99.90
44190;DHT22;29856;52.144;5.430;2023-08-07T13:02:49;20.00;99.90
44190;DHT22;29856;52.144;5.430;2023-08-07T13:05:16;19.80;99.90
44190;DHT22;29856;52.144;5.430;2023-08-07T13:07:42;20.30;99.90
44190;DHT22;29856;52.144;5.430;2023-08-07T13:10:10;20.70;99.90
44190;DHT22;29856;52.144;5.430;2023-08-07T13:12:40;20.70;99.90
44190;DHT22;29856;52.144;5.430;2023-08-07T13:15:09;20.90;99.90
44190;DHT22;29856;52.144;5.430;2023-08-07T13:17:35;20.80;99.90
44190;DHT22;29856;52.144;5.430;2023-08-07T13:20:02;20.60;99.90
44190;DHT22;29856;52.144;5.430;2023-08-07T13:22:28;20.30;99.90
44190;DHT22;29856;52.144;5.430;2023-08-07T13:24:53;20.60;99.90
44190;DHT22;29856;52.144;5.430;2023-08-07T13:27:19;21.00;99.90
44190;DHT22;29856;52.144;5.430;2023-08-07T13:29:44;20.90;99.90
44190;DHT22;29856;52.144;5.430;2023-08-07T13:32:10;21.10;99.90
44190;DHT22;29856;52.144;5.430;2023-08-07T13:34:36;20.50;99.90
44190;DHT22;29856;52.144;5.430;2023-08-07T13:37:01;20.90;99.90
44190;DHT22;29856;52.144;5.430;2023-08-07T13:39:27;20.70;99.90
44190;DHT22;29856;52.144;5.430;2023-08-07T13:41:52;20.70;99.90
44190;DHT22;29856;52.144;5.430;2023-08-07T13:44:18;20.40;99.90
44190;DHT22;29856;52.144;5.430;2023-08-07T13:46:43;20.80;99.90
44190;DHT22;29856;52.144;5.430;2023-08-07T13:49:09;21.30;99.90
44190;DHT22;29856;52.144;5.430;2023-08-07T13:51:34;20.90;99.90
44190;DHT22;29856;52.144;5.430;2023-08-07T13:54:00;20.80;99.90
44190;DHT22;29856;52.144;5.430;2023-08-07T13:56:25;21.00;99.90
44190;DHT22;29856;52.144;5.430;2023-08-07T13:58:51;20.60;99.90
44190;DHT22;29856;52.144;5.430;2023-08-07T14:01:16;20.20;99.90
44190;DHT22;29856;52.144;5.430;2023-08-07T14:03:42;20.40;99.90
44190;DHT22;29856;52.144;5.430;2023-08-07T14:06:07;20.80;99.90
44190;DHT22;29856;52.144;5.430;2023-08-07T14:08:33;20.90;99.50
44190;DHT22;29856;52.144;5.430;2023-08-07T14:10:58;20.80;99.60
44190;DHT22;29856;52.144;5.430;2023-08-07T14:13:24;21.00;99.90
44190;DHT22;29856;52.144;5.430;2023-08-07T14:15:49;21.30;99.90
44190;DHT22;29856;52.144;5.430;2023-08-07T14:18:15;21.20;99.90
44190;DHT22;29856;52.144;5.430;2023-08-07T14:20:40;21.30;99.90
44190;DHT22;29856;52.144;5.430;2023-08-07T14:23:06;21.40;99.90
44190;DHT22;29856;52.144;5.430;2023-08-07T14:25:31;21.20;99.40
44190;DHT22;29856;52.144;5.430;2023-08-07T14:27:57;20.90;99.20
44190;DHT22;29856;52.144;5.430;2023-08-07T14:30:22;20.50;99.90
44190;DHT22;29856;52.144;5.430;2023-08-07T14:32:49;20.80;98.70
44190;DHT22;29856;52.144;5.430;2023-08-07T14:35:14;21.00;99.90
44190;DHT22;29856;52.144;5.430;2023-08-07T14:37:40;21.10;99.00
44190;DHT22;29856;52.144;5.430;2023-08-07T14:40:07;21.10;98.50
44190;DHT22;29856;52.144;5.430;2023-08-07T14:42:33;21.40;99.60
44190;DHT22;29856;52.144;5.430;2023-08-07T14:44:59;21.10;98.60
44190;DHT22;29856;52.144;5.430;2023-08-07T14:47:25;21.20;99.90
44190;DHT22;29856;52.144;5.430;2023-08-07T14:49:50;20.90;99.90
44190;DHT22;29856;52.144;5.430;2023-08-07T14:52:16;21.40;99.90
44190;DHT22;29856;52.144;5.430;2023-08-07T14:54:42;21.30;99.90
44190;DHT22;29856;52.144;5.430;2023-08-07T14:57:07;21.10;99.90
44190;DHT22;29856;52.144;5.430;2023-08-07T14:59:33;20.90;98.70
44190;DHT22;29856;52.144;5.430;2023-08-07T15:01:58;20.90;98.30
44190;DHT22;29856;52.144;5.430;2023-08-07T15:04:23;20.80;96.70
44190;DHT22;29856;52.144;5.430;2023-08-07T15:06:49;20.80;95.90
44190;DHT22;29856;52.144;5.430;2023-08-07T15:09:14;20.90;96.50
44190;DHT22;29856;52.144;5.430;2023-08-07T15:11:40;20.70;96.60
44190;DHT22;29856;52.144;5.430;2023-08-07T15:14:05;21.00;98.20
44190;DHT22;29856;52.144;5.430;2023-08-07T15:16:31;20.90;98.60
44190;DHT22;29856;52.144;5.430;2023-08-07T15:18:57;21.50;99.80
44190;DHT22;29856;52.144;5.430;2023-08-07T15:21:22;21.60;98.80
44190;DHT22;29856;52.144;5.430;2023-08-07T15:23:48;21.80;99.90
44190;DHT22;29856;52.144;5.430;2023-08-07T15:26:13;21.80;99.90
44190;DHT22;29856;52.144;5.430;2023-08-07T15:28:40;21.20;99.90
44190;DHT22;29856;52.144;5.430;2023-08-07T15:31:06;21.50;99.90
44190;DHT22;29856;52.144;5.430;2023-08-07T15:33:31;21.00;99.90